sensor_id;sensor_type;location;lat;lon;timestamp;P1;durP1;ratioP1;P2;durP2;ratioP2
65162;SDS011;51751;55.714;37.436;2023-02-22T00:01:58;18.08;;;7.22;;
65162;SDS011;51751;55.714;37.436;2023-02-22T00:04:38;15.95;;;7.18;;
65162;SDS011;51751;55.714;37.436;2023-02-22T00:07:04;16.95;;;7.18;;
65162;SDS011;51751;55.714;37.436;2023-02-22T00:09:31;17.13;;;6.28;;
65162;SDS011;51751;55.714;37.436;2023-02-22T00:11:57;18.38;;;6.25;;
65162;SDS011;51751;55.714;37.436;2023-02-22T00:14:23;17.90;;;7.00;;
65162;SDS011;51751;55.714;37.436;2023-02-22T00:16:52;15.05;;;7.13;;
65162;SDS011;51751;55.714;37.436;2023-02-22T00:19:20;18.20;;;6.90;;
65162;SDS011;51751;55.714;37.436;2023-02-22T00:21:50;15.43;;;6.18;;
65162;SDS011;51751;55.714;37.436;2023-02-22T00:24:36;16.58;;;6.57;;
65162;SDS011;51751;55.714;37.436;2023-02-22T00:27:02;18.10;;;7.50;;
65162;SDS011;51751;55.714;37.436;2023-02-22T00:29:28;25.92;;;7.80;;
65162;SDS011;51751;55.714;37.436;2023-02-22T00:31:54;13.38;;;6.22;;
65162;SDS011;51751;55.714;37.436;2023-02-22T00:34:20;19.88;;;7.70;;
65162;SDS011;51751;55.714;37.436;2023-02-22T00:36:47;14.95;;;6.75;;
65162;SDS011;51751;55.714;37.436;2023-02-22T00:39:13;17.17;;;7.18;;
65162;SDS011;51751;55.714;37.436;2023-02-22T00:41:40;16.58;;;6.05;;
65162;SDS011;51751;55.714;37.436;2023-02-22T00:44:06;17.85;;;7.25;;
65162;SDS011;51751;55.714;37.436;2023-02-22T00:46:32;21.45;;;8.32;;
65162;SDS011;51751;55.714;37.436;2023-02-22T00:48:58;20.15;;;7.85;;
65162;SDS011;51751;55.714;37.436;2023-02-22T00:51:24;19.02;;;7.70;;
65162;SDS011;51751;55.714;37.436;2023-02-22T00:53:51;18.58;;;7.35;;
65162;SDS011;51751;55.714;37.436;2023-02-22T00:56:17;19.88;;;7.55;;
65162;SDS011;51751;55.714;37.436;2023-02-22T00:58:43;19.48;;;5.85;;
65162;SDS011;51751;55.714;37.436;2023-02-22T01:03:58;17.02;;;6.63;;
65162;SDS011;51751;55.714;37.436;2023-02-22T01:06:42;15.52;;;7.03;;
65162;SDS011;51751;55.714;37.436;2023-02-22T01:09:08;17.45;;;7.63;;
65162;SDS011;51751;55.714;37.436;2023-02-22T01:11:34;20.63;;;7.68;;
65162;SDS011;51751;55.714;37.436;2023-02-22T01:14:00;19.23;;;7.85;;
65162;SDS011;51751;55.714;37.436;2023-02-22T01:16:25;20.23;;;7.28;;
65162;SDS011;51751;55.714;37.436;2023-02-22T01:18:51;20.52;;;7.10;;
65162;SDS011;51751;55.714;37.436;2023-02-22T01:21:17;18.10;;;7.38;;
65162;SDS011;51751;55.714;37.436;2023-02-22T01:23:44;15.93;;;6.88;;
65162;SDS011;51751;55.714;37.436;2023-02-22T01:26:10;16.80;;;7.78;;
65162;SDS011;51751;55.714;37.436;2023-02-22T01:28:36;20.13;;;7.18;;
65162;SDS011;51751;55.714;37.436;2023-02-22T01:31:03;19.63;;;7.53;;
65162;SDS011;51751;55.714;37.436;2023-02-22T01:33:29;13.80;;;7.15;;
65162;SDS011;51751;55.714;37.436;2023-02-22T01:35:55;15.82;;;7.20;;
65162;SDS011;51751;55.714;37.436;2023-02-22T01:38:21;19.10;;;7.10;;
65162;SDS011;51751;55.714;37.436;2023-02-22T01:40:48;16.58;;;7.07;;
65162;SDS011;51751;55.714;37.436;2023-02-22T01:45:55;17.58;;;6.85;;
65162;SDS011;51751;55.714;37.436;2023-02-22T01:48:45;17.63;;;6.50;;
65162;SDS011;51751;55.714;37.436;2023-02-22T01:51:29;26.85;;;8.23;;
65162;SDS011;51751;55.714;37.436;2023-02-22T01:56:58;16.33;;;6.93;;
65162;SDS011;51751;55.714;37.436;2023-02-22T01:59:31;15.70;;;6.97;;
65162;SDS011;51751;55.714;37.436;2023-02-22T02:01:59;14.73;;;7.13;;
65162;SDS011;51751;55.714;37.436;2023-02-22T02:04:25;16.23;;;7.45;;
65162;SDS011;51751;55.714;37.436;2023-02-22T02:06:55;17.98;;;7.22;;
65162;SDS011;51751;55.714;37.436;2023-02-22T02:11:59;18.38;;;7.45;;
65162;SDS011;51751;55.714;37.436;2023-02-22T02:14:27;23.27;;;6.70;;
65162;SDS011;51751;55.714;37.436;2023-02-22T02:16:56;16.98;;;6.78;;
65162;SDS011;51751;55.714;37.436;2023-02-22T02:19:30;17.48;;;6.97;;
65162;SDS011;51751;55.714;37.436;2023-02-22T02:24:50;18.67;;;7.70;;
65162;SDS011;51751;55.714;37.436;2023-02-22T02:41:45;17.50;;;7.10;;
65162;SDS011;51751;55.714;37.436;2023-02-22T02:46:49;23.60;;;6.53;;
65162;SDS011;51751;55.714;37.436;2023-02-22T02:49:20;16.25;;;7.10;;
65162;SDS011;51751;55.714;37.436;2023-02-22T02:51:50;14.80;;;6.75;;
65162;SDS011;51751;55.714;37.436;2023-02-22T02:54:19;19.85;;;7.18;;
65162;SDS011;51751;55.714;37.436;2023-02-22T02:56:46;13.38;;;6.57;;
65162;SDS011;51751;55.714;37.436;2023-02-22T02:59:29;16.08;;;6.18;;
65162;SDS011;51751;55.714;37.436;2023-02-22T03:08:01;15.85;;;7.15;;
65162;SDS011;51751;55.714;37.436;2023-02-22T03:13:07;15.35;;;6.55;;
65162;SDS011;51751;55.714;37.436;2023-02-22T03:18:24;12.50;;;5.53;;
65162;SDS011;51751;55.714;37.436;2023-02-22T03:23:58;14.68;;;5.75;;
65162;SDS011;51751;55.714;37.436;2023-02-22T03:26:38;18.33;;;7.18;;
65162;SDS011;51751;55.714;37.436;2023-02-22T03:29:08;17.43;;;5.60;;
65162;SDS011;51751;55.714;37.436;2023-02-22T03:31:40;14.40;;;5.82;;
65162;SDS011;51751;55.714;37.436;2023-02-22T03:34:16;19.90;;;6.13;;
65162;SDS011;51751;55.714;37.436;2023-02-22T03:36:46;15.15;;;6.43;;
65162;SDS011;51751;55.714;37.436;2023-02-22T03:39:15;15.65;;;6.57;;
65162;SDS011;51751;55.714;37.436;2023-02-22T03:41:44;14.40;;;6.53;;
65162;SDS011;51751;55.714;37.436;2023-02-22T03:44:23;13.60;;;6.50;;
65162;SDS011;51751;55.714;37.436;2023-02-22T03:46:52;15.65;;;6.57;;
65162;SDS011;51751;55.714;37.436;2023-02-22T03:49:31;17.60;;;7.03;;
65162;SDS011;51751;55.714;37.436;2023-02-22T03:52:02;20.65;;;7.28;;
65162;SDS011;51751;55.714;37.436;2023-02-22T03:54:31;11.30;;;5.18;;
65162;SDS011;51751;55.714;37.436;2023-02-22T03:56:59;16.55;;;6.22;;
65162;SDS011;51751;55.714;37.436;2023-02-22T03:59:50;14.23;;;6.20;;
65162;SDS011;51751;55.714;37.436;2023-02-22T04:02:16;12.10;;;6.07;;
65162;SDS011;51751;55.714;37.436;2023-02-22T04:04:46;11.48;;;5.85;;
65162;SDS011;51751;55.714;37.436;2023-02-22T04:07:31;14.63;;;6.25;;
65162;SDS011;51751;55.714;37.436;2023-02-22T04:09:57;18.50;;;6.53;;
65162;SDS011;51751;55.714;37.436;2023-02-22T04:12:25;16.17;;;6.70;;
65162;SDS011;51751;55.714;37.436;2023-02-22T04:14:56;16.85;;;6.25;;
65162;SDS011;51751;55.714;37.436;2023-02-22T04:17:22;16.00;;;6.60;;
65162;SDS011;51751;55.714;37.436;2023-02-22T04:19:48;14.77;;;6.15;;
65162;SDS011;51751;55.714;37.436;2023-02-22T04:22:14;15.90;;;6.45;;
65162;SDS011;51751;55.714;37.436;2023-02-22T04:24:40;17.55;;;7.32;;
65162;SDS011;51751;55.714;37.436;2023-02-22T04:27:06;6.68;;;3.80;;
65162;SDS011;51751;55.714;37.436;2023-02-22T04:29:35;13.30;;;6.13;;
65162;SDS011;51751;55.714;37.436;2023-02-22T04:32:03;14.60;;;5.55;;
65162;SDS011;51751;55.714;37.436;2023-02-22T04:34:29;17.48;;;7.05;;
65162;SDS011;51751;55.714;37.436;2023-02-22T04:36:55;13.32;;;5.85;;
65162;SDS011;51751;55.714;37.436;2023-02-22T04:39:21;15.05;;;6.07;;
65162;SDS011;51751;55.714;37.436;2023-02-22T04:41:49;14.60;;;5.93;;
65162;SDS011;51751;55.714;37.436;2023-02-22T04:44:15;15.65;;;7.25;;
65162;SDS011;51751;55.714;37.436;2023-02-22T04:46:41;20.40;;;6.85;;
65162;SDS011;51751;55.714;37.436;2023-02-22T04:49:08;15.95;;;6.18;;
65162;SDS011;51751;55.714;37.436;2023-02-22T04:51:36;12.57;;;4.78;;
65162;SDS011;51751;55.714;37.436;2023-02-22T04:54:07;11.35;;;5.10;;
65162;SDS011;51751;55.714;37.436;2023-02-22T04:56:35;13.38;;;5.78;;
65162;SDS011;51751;55.714;37.436;2023-02-22T04:59:01;13.68;;;6.38;;
65162;SDS011;51751;55.714;37.436;2023-02-22T05:01:31;14.93;;;7.10;;
65162;SDS011;51751;55.714;37.436;2023-02-22T05:04:02;14.65;;;6.10;;
65162;SDS011;51751;55.714;37.436;2023-02-22T05:06:28;19.95;;;6.75;;
65162;SDS011;51751;55.714;37.436;2023-02-22T05:08:54;16.75;;;6.82;;
65162;SDS011;51751;55.714;37.436;2023-02-22T05:11:20;13.68;;;6.20;;
65162;SDS011;51751;55.714;37.436;2023-02-22T05:13:46;11.52;;;4.13;;
65162;SDS011;51751;55.714;37.436;2023-02-22T05:16:12;14.65;;;6.20;;
65162;SDS011;51751;55.714;37.436;2023-02-22T05:18:38;15.98;;;6.25;;
65162;SDS011;51751;55.714;37.436;2023-02-22T05:21:05;15.25;;;5.90;;
65162;SDS011;51751;55.714;37.436;2023-02-22T05:23:50;13.07;;;5.85;;
65162;SDS011;51751;55.714;37.436;2023-02-22T05:26:16;12.05;;;5.40;;
65162;SDS011;51751;55.714;37.436;2023-02-22T05:28:42;12.45;;;5.00;;
65162;SDS011;51751;55.714;37.436;2023-02-22T05:31:08;13.10;;;6.10;;
65162;SDS011;51751;55.714;37.436;2023-02-22T05:33:34;10.55;;;5.20;;
65162;SDS011;51751;55.714;37.436;2023-02-22T05:36:00;14.10;;;6.57;;
65162;SDS011;51751;55.714;37.436;2023-02-22T05:38:26;11.40;;;6.30;;
65162;SDS011;51751;55.714;37.436;2023-02-22T05:41:10;10.30;;;4.88;;
65162;SDS011;51751;55.714;37.436;2023-02-22T05:43:38;9.73;;;4.63;;
65162;SDS011;51751;55.714;37.436;2023-02-22T05:46:04;11.38;;;5.15;;
65162;SDS011;51751;55.714;37.436;2023-02-22T05:48:30;13.88;;;5.95;;
65162;SDS011;51751;55.714;37.436;2023-02-22T05:50:56;14.38;;;5.82;;
65162;SDS011;51751;55.714;37.436;2023-02-22T05:53:23;18.42;;;6.53;;
65162;SDS011;51751;55.714;37.436;2023-02-22T05:55:49;12.68;;;5.88;;
65162;SDS011;51751;55.714;37.436;2023-02-22T05:58:16;14.30;;;6.43;;
65162;SDS011;51751;55.714;37.436;2023-02-22T06:00:42;16.77;;;7.32;;
65162;SDS011;51751;55.714;37.436;2023-02-22T06:03:26;15.57;;;6.55;;
65162;SDS011;51751;55.714;37.436;2023-02-22T06:05:52;14.13;;;6.63;;
65162;SDS011;51751;55.714;37.436;2023-02-22T06:08:18;15.38;;;6.65;;
65162;SDS011;51751;55.714;37.436;2023-02-22T06:10:44;19.83;;;7.45;;
65162;SDS011;51751;55.714;37.436;2023-02-22T06:13:10;20.25;;;8.52;;
65162;SDS011;51751;55.714;37.436;2023-02-22T06:15:36;19.65;;;8.23;;
65162;SDS011;51751;55.714;37.436;2023-02-22T06:18:02;16.88;;;7.28;;
65162;SDS011;51751;55.714;37.436;2023-02-22T06:20:28;15.07;;;6.32;;
65162;SDS011;51751;55.714;37.436;2023-02-22T06:22:55;15.98;;;6.47;;
65162;SDS011;51751;55.714;37.436;2023-02-22T06:25:23;22.70;;;6.82;;
65162;SDS011;51751;55.714;37.436;2023-02-22T06:27:50;16.88;;;6.80;;
65162;SDS011;51751;55.714;37.436;2023-02-22T06:30:35;19.00;;;7.20;;
65162;SDS011;51751;55.714;37.436;2023-02-22T06:33:01;14.48;;;6.85;;
65162;SDS011;51751;55.714;37.436;2023-02-22T06:35:27;18.08;;;7.32;;
65162;SDS011;51751;55.714;37.436;2023-02-22T06:37:53;18.10;;;6.45;;
65162;SDS011;51751;55.714;37.436;2023-02-22T06:40:19;17.55;;;7.30;;
65162;SDS011;51751;55.714;37.436;2023-02-22T06:42:46;14.15;;;6.70;;
65162;SDS011;51751;55.714;37.436;2023-02-22T06:45:14;18.00;;;7.55;;
65162;SDS011;51751;55.714;37.436;2023-02-22T06:47:41;17.42;;;6.72;;
65162;SDS011;51751;55.714;37.436;2023-02-22T06:50:07;17.73;;;6.72;;
65162;SDS011;51751;55.714;37.436;2023-02-22T06:52:43;17.48;;;6.85;;
65162;SDS011;51751;55.714;37.436;2023-02-22T06:55:09;10.50;;;5.18;;
65162;SDS011;51751;55.714;37.436;2023-02-22T06:57:35;18.13;;;7.10;;
65162;SDS011;51751;55.714;37.436;2023-02-22T07:00:01;19.55;;;7.63;;
65162;SDS011;51751;55.714;37.436;2023-02-22T07:02:29;18.85;;;7.68;;
65162;SDS011;51751;55.714;37.436;2023-02-22T07:04:55;17.83;;;6.32;;
65162;SDS011;51751;55.714;37.436;2023-02-22T07:07:21;16.75;;;6.90;;
65162;SDS011;51751;55.714;37.436;2023-02-22T07:09:48;17.80;;;6.38;;
65162;SDS011;51751;55.714;37.436;2023-02-22T07:12:13;23.58;;;6.85;;
65162;SDS011;51751;55.714;37.436;2023-02-22T07:14:39;16.17;;;6.20;;
65162;SDS011;51751;55.714;37.436;2023-02-22T07:17:05;17.40;;;7.47;;
65162;SDS011;51751;55.714;37.436;2023-02-22T07:19:31;15.85;;;6.95;;
65162;SDS011;51751;55.714;37.436;2023-02-22T07:21:57;13.95;;;6.07;;
65162;SDS011;51751;55.714;37.436;2023-02-22T07:24:24;20.83;;;9.02;;
65162;SDS011;51751;55.714;37.436;2023-02-22T07:26:52;17.88;;;8.07;;
65162;SDS011;51751;55.714;37.436;2023-02-22T07:29:18;16.42;;;7.20;;
65162;SDS011;51751;55.714;37.436;2023-02-22T07:31:47;20.35;;;7.07;;
65162;SDS011;51751;55.714;37.436;2023-02-22T07:34:12;16.75;;;8.05;;
65162;SDS011;51751;55.714;37.436;2023-02-22T07:36:40;16.85;;;7.22;;
65162;SDS011;51751;55.714;37.436;2023-02-22T07:39:06;17.30;;;7.25;;
65162;SDS011;51751;55.714;37.436;2023-02-22T07:41:35;19.98;;;7.30;;
65162;SDS011;51751;55.714;37.436;2023-02-22T07:44:01;13.85;;;6.28;;
65162;SDS011;51751;55.714;37.436;2023-02-22T07:46:27;23.15;;;7.00;;
65162;SDS011;51751;55.714;37.436;2023-02-22T07:48:53;16.55;;;7.18;;
65162;SDS011;51751;55.714;37.436;2023-02-22T07:51:19;14.52;;;6.75;;
65162;SDS011;51751;55.714;37.436;2023-02-22T07:53:45;15.82;;;7.03;;
65162;SDS011;51751;55.714;37.436;2023-02-22T07:56:12;12.25;;;5.65;;
65162;SDS011;51751;55.714;37.436;2023-02-22T07:58:38;17.33;;;6.80;;
65162;SDS011;51751;55.714;37.436;2023-02-22T08:01:22;22.35;;;7.15;;
65162;SDS011;51751;55.714;37.436;2023-02-22T08:03:49;18.17;;;6.95;;
65162;SDS011;51751;55.714;37.436;2023-02-22T08:06:14;17.55;;;7.00;;
65162;SDS011;51751;55.714;37.436;2023-02-22T08:08:40;21.73;;;8.10;;
65162;SDS011;51751;55.714;37.436;2023-02-22T08:11:07;19.85;;;7.25;;
65162;SDS011;51751;55.714;37.436;2023-02-22T08:13:52;15.95;;;6.50;;
65162;SDS011;51751;55.714;37.436;2023-02-22T08:16:17;17.30;;;7.53;;
65162;SDS011;51751;55.714;37.436;2023-02-22T08:18:43;17.92;;;6.60;;
65162;SDS011;51751;55.714;37.436;2023-02-22T08:21:09;17.77;;;6.72;;
65162;SDS011;51751;55.714;37.436;2023-02-22T08:23:35;18.70;;;6.78;;
65162;SDS011;51751;55.714;37.436;2023-02-22T08:26:19;17.45;;;7.35;;
65162;SDS011;51751;55.714;37.436;2023-02-22T08:28:45;20.13;;;7.03;;
65162;SDS011;51751;55.714;37.436;2023-02-22T08:31:10;17.02;;;7.20;;
65162;SDS011;51751;55.714;37.436;2023-02-22T08:33:36;17.63;;;7.63;;
65162;SDS011;51751;55.714;37.436;2023-02-22T08:36:02;18.52;;;7.43;;
65162;SDS011;51751;55.714;37.436;2023-02-22T08:38:29;18.27;;;7.38;;
65162;SDS011;51751;55.714;37.436;2023-02-22T08:40:57;19.30;;;7.90;;
65162;SDS011;51751;55.714;37.436;2023-02-22T08:43:23;18.77;;;6.97;;
65162;SDS011;51751;55.714;37.436;2023-02-22T08:45:49;17.95;;;6.95;;
65162;SDS011;51751;55.714;37.436;2023-02-22T08:48:16;15.70;;;6.40;;
65162;SDS011;51751;55.714;37.436;2023-02-22T08:50:42;14.32;;;6.55;;
65162;SDS011;51751;55.714;37.436;2023-02-22T08:53:09;14.10;;;6.60;;
65162;SDS011;51751;55.714;37.436;2023-02-22T08:55:38;13.57;;;6.20;;
65162;SDS011;51751;55.714;37.436;2023-02-22T08:58:05;19.73;;;7.07;;
65162;SDS011;51751;55.714;37.436;2023-02-22T09:00:33;17.83;;;7.32;;
65162;SDS011;51751;55.714;37.436;2023-02-22T09:03:00;15.48;;;6.22;;
65162;SDS011;51751;55.714;37.436;2023-02-22T09:05:27;15.15;;;6.72;;
65162;SDS011;51751;55.714;37.436;2023-02-22T09:07:53;18.48;;;6.50;;
65162;SDS011;51751;55.714;37.436;2023-02-22T09:10:21;13.57;;;6.00;;
65162;SDS011;51751;55.714;37.436;2023-02-22T09:12:49;13.70;;;6.60;;
65162;SDS011;51751;55.714;37.436;2023-02-22T09:15:16;19.70;;;6.93;;
65162;SDS011;51751;55.714;37.436;2023-02-22T09:18:01;16.33;;;6.55;;
65162;SDS011;51751;55.714;37.436;2023-02-22T09:20:28;14.60;;;6.07;;
65162;SDS011;51751;55.714;37.436;2023-02-22T09:22:54;20.73;;;6.80;;
65162;SDS011;51751;55.714;37.436;2023-02-22T09:25:20;15.18;;;6.63;;
65162;SDS011;51751;55.714;37.436;2023-02-22T09:27:47;14.30;;;6.82;;
65162;SDS011;51751;55.714;37.436;2023-02-22T09:30:19;17.45;;;7.80;;
65162;SDS011;51751;55.714;37.436;2023-02-22T09:32:49;17.27;;;6.57;;
65162;SDS011;51751;55.714;37.436;2023-02-22T09:35:16;14.52;;;6.97;;
65162;SDS011;51751;55.714;37.436;2023-02-22T09:37:42;12.02;;;6.65;;
65162;SDS011;51751;55.714;37.436;2023-02-22T09:40:13;18.15;;;7.72;;
65162;SDS011;51751;55.714;37.436;2023-02-22T09:43:03;16.50;;;6.60;;
65162;SDS011;51751;55.714;37.436;2023-02-22T09:46:17;14.35;;;7.03;;
65162;SDS011;51751;55.714;37.436;2023-02-22T09:49:05;12.80;;;6.45;;
65162;SDS011;51751;55.714;37.436;2023-02-22T09:51:42;13.93;;;6.22;;
65162;SDS011;51751;55.714;37.436;2023-02-22T09:54:41;13.32;;;6.20;;
65162;SDS011;51751;55.714;37.436;2023-02-22T09:57:06;14.93;;;6.78;;
65162;SDS011;51751;55.714;37.436;2023-02-22T09:59:39;16.67;;;7.35;;
65162;SDS011;51751;55.714;37.436;2023-02-22T10:02:21;13.75;;;6.60;;
65162;SDS011;51751;55.714;37.436;2023-02-22T10:04:56;14.55;;;7.13;;
65162;SDS011;51751;55.714;37.436;2023-02-22T10:10:22;14.52;;;6.43;;
65162;SDS011;51751;55.714;37.436;2023-02-22T10:19:00;17.05;;;6.53;;
65162;SDS011;51751;55.714;37.436;2023-02-22T10:21:44;16.45;;;7.75;;
65162;SDS011;51751;55.714;37.436;2023-02-22T10:26:50;16.45;;;7.47;;
65162;SDS011;51751;55.714;37.436;2023-02-22T10:32:20;14.75;;;6.72;;
65162;SDS011;51751;55.714;37.436;2023-02-22T10:34:53;15.30;;;6.90;;
65162;SDS011;51751;55.714;37.436;2023-02-22T10:40:11;13.57;;;6.75;;
65162;SDS011;51751;55.714;37.436;2023-02-22T10:42:41;13.10;;;6.68;;
65162;SDS011;51751;55.714;37.436;2023-02-22T10:45:16;14.93;;;6.63;;
65162;SDS011;51751;55.714;37.436;2023-02-22T10:47:46;15.27;;;6.63;;
65162;SDS011;51751;55.714;37.436;2023-02-22T10:50:12;14.82;;;5.57;;
65162;SDS011;51751;55.714;37.436;2023-02-22T10:52:39;11.88;;;5.90;;
65162;SDS011;51751;55.714;37.436;2023-02-22T10:55:11;14.07;;;6.60;;
65162;SDS011;51751;55.714;37.436;2023-02-22T10:57:38;15.55;;;6.07;;
65162;SDS011;51751;55.714;37.436;2023-02-22T11:00:17;17.67;;;7.00;;
65162;SDS011;51751;55.714;37.436;2023-02-22T11:03:16;14.00;;;6.40;;
65162;SDS011;51751;55.714;37.436;2023-02-22T11:05:43;17.52;;;7.20;;
65162;SDS011;51751;55.714;37.436;2023-02-22T11:10:41;14.68;;;6.72;;
65162;SDS011;51751;55.714;37.436;2023-02-22T11:13:24;20.40;;;6.97;;
65162;SDS011;51751;55.714;37.436;2023-02-22T11:15:53;15.60;;;6.47;;
65162;SDS011;51751;55.714;37.436;2023-02-22T11:18:21;13.82;;;6.38;;
65162;SDS011;51751;55.714;37.436;2023-02-22T11:21:19;13.95;;;7.05;;
65162;SDS011;51751;55.714;37.436;2023-02-22T11:23:47;11.88;;;6.25;;
65162;SDS011;51751;55.714;37.436;2023-02-22T11:26:17;11.38;;;5.68;;
65162;SDS011;51751;55.714;37.436;2023-02-22T11:28:49;14.65;;;6.57;;
65162;SDS011;51751;55.714;37.436;2023-02-22T11:31:41;9.88;;;5.57;;
65162;SDS011;51751;55.714;37.436;2023-02-22T11:34:23;12.30;;;6.30;;
65162;SDS011;51751;55.714;37.436;2023-02-22T11:36:54;15.38;;;7.38;;
65162;SDS011;51751;55.714;37.436;2023-02-22T11:39:25;12.32;;;6.13;;
65162;SDS011;51751;55.714;37.436;2023-02-22T11:42:12;12.93;;;6.07;;
65162;SDS011;51751;55.714;37.436;2023-02-22T11:45:09;19.02;;;7.28;;
65162;SDS011;51751;55.714;37.436;2023-02-22T11:47:52;13.50;;;6.43;;
65162;SDS011;51751;55.714;37.436;2023-02-22T11:53:28;18.27;;;7.38;;
65162;SDS011;51751;55.714;37.436;2023-02-22T11:56:12;20.35;;;7.85;;
65162;SDS011;51751;55.714;37.436;2023-02-22T11:59:03;14.57;;;6.95;;
65162;SDS011;51751;55.714;37.436;2023-02-22T12:01:54;10.57;;;5.45;;
65162;SDS011;51751;55.714;37.436;2023-02-22T12:21:31;12.68;;;6.43;;
65162;SDS011;51751;55.714;37.436;2023-02-22T12:24:01;17.38;;;6.68;;
65162;SDS011;51751;55.714;37.436;2023-02-22T12:26:32;12.65;;;5.75;;
65162;SDS011;51751;55.714;37.436;2023-02-22T12:31:46;18.35;;;6.25;;
65162;SDS011;51751;55.714;37.436;2023-02-22T12:37:10;14.23;;;6.32;;
65162;SDS011;51751;55.714;37.436;2023-02-22T12:39:46;22.48;;;6.88;;
65162;SDS011;51751;55.714;37.436;2023-02-22T12:45:35;11.93;;;6.22;;
65162;SDS011;51751;55.714;37.436;2023-02-22T12:50:52;13.48;;;5.75;;
65162;SDS011;51751;55.714;37.436;2023-02-22T12:53:24;16.98;;;6.85;;
65162;SDS011;51751;55.714;37.436;2023-02-22T12:56:15;14.10;;;6.18;;
65162;SDS011;51751;55.714;37.436;2023-02-22T12:58:56;14.55;;;6.43;;
65162;SDS011;51751;55.714;37.436;2023-02-22T13:01:35;14.95;;;6.22;;
65162;SDS011;51751;55.714;37.436;2023-02-22T13:17:39;14.13;;;7.28;;
65162;SDS011;51751;55.714;37.436;2023-02-22T13:33:58;17.92;;;6.47;;
65162;SDS011;51751;55.714;37.436;2023-02-22T13:39:05;12.00;;;6.35;;
65162;SDS011;51751;55.714;37.436;2023-02-22T13:44:38;12.88;;;6.53;;
65162;SDS011;51751;55.714;37.436;2023-02-22T13:47:32;11.88;;;6.07;;
65162;SDS011;51751;55.714;37.436;2023-02-22T13:50:20;17.30;;;6.38;;
65162;SDS011;51751;55.714;37.436;2023-02-22T13:53:10;15.43;;;6.38;;
65162;SDS011;51751;55.714;37.436;2023-02-22T13:55:40;14.63;;;6.80;;
65162;SDS011;51751;55.714;37.436;2023-02-22T13:58:11;13.30;;;6.38;;
65162;SDS011;51751;55.714;37.436;2023-02-22T14:06:01;14.02;;;5.80;;
65162;SDS011;51751;55.714;37.436;2023-02-22T14:14:30;12.80;;;6.25;;
65162;SDS011;51751;55.714;37.436;2023-02-22T14:21:54;10.93;;;5.70;;
65162;SDS011;51751;55.714;37.436;2023-02-22T14:24:20;11.38;;;5.40;;
65162;SDS011;51751;55.714;37.436;2023-02-22T14:26:57;9.88;;;5.03;;
65162;SDS011;51751;55.714;37.436;2023-02-22T14:29:25;13.10;;;6.20;;
65162;SDS011;51751;55.714;37.436;2023-02-22T14:45:16;12.38;;;5.25;;
65162;SDS011;51751;55.714;37.436;2023-02-22T14:51:20;9.68;;;4.20;;
65162;SDS011;51751;55.714;37.436;2023-02-22T14:54:11;17.60;;;5.25;;
65162;SDS011;51751;55.714;37.436;2023-02-22T14:56:50;12.75;;;5.32;;
65162;SDS011;51751;55.714;37.436;2023-02-22T14:59:21;20.10;;;4.75;;
65162;SDS011;51751;55.714;37.436;2023-02-22T15:01:56;10.40;;;5.18;;
65162;SDS011;51751;55.714;37.436;2023-02-22T15:04:29;8.60;;;4.38;;
65162;SDS011;51751;55.714;37.436;2023-02-22T15:06:57;15.73;;;5.80;;
65162;SDS011;51751;55.714;37.436;2023-02-22T15:09:26;13.25;;;4.90;;
65162;SDS011;51751;55.714;37.436;2023-02-22T15:15:09;9.43;;;3.90;;
65162;SDS011;51751;55.714;37.436;2023-02-22T15:17:40;9.88;;;4.57;;
65162;SDS011;51751;55.714;37.436;2023-02-22T15:20:11;11.32;;;4.57;;
65162;SDS011;51751;55.714;37.436;2023-02-22T15:22:41;13.07;;;5.05;;
65162;SDS011;51751;55.714;37.436;2023-02-22T15:25:07;11.13;;;5.13;;
65162;SDS011;51751;55.714;37.436;2023-02-22T15:27:34;12.70;;;4.95;;
65162;SDS011;51751;55.714;37.436;2023-02-22T15:30:03;10.90;;;4.82;;
65162;SDS011;51751;55.714;37.436;2023-02-22T15:32:38;13.43;;;4.57;;
65162;SDS011;51751;55.714;37.436;2023-02-22T15:37:58;10.13;;;4.68;;
65162;SDS011;51751;55.714;37.436;2023-02-22T15:40:27;11.00;;;4.72;;
65162;SDS011;51751;55.714;37.436;2023-02-22T15:43:00;9.55;;;4.40;;
65162;SDS011;51751;55.714;37.436;2023-02-22T15:45:27;9.75;;;4.60;;
65162;SDS011;51751;55.714;37.436;2023-02-22T15:47:54;13.38;;;4.60;;
65162;SDS011;51751;55.714;37.436;2023-02-22T15:53:05;11.93;;;4.30;;
65162;SDS011;51751;55.714;37.436;2023-02-22T15:55:35;10.70;;;4.30;;
65162;SDS011;51751;55.714;37.436;2023-02-22T15:58:22;12.07;;;4.90;;
65162;SDS011;51751;55.714;37.436;2023-02-22T16:01:09;7.60;;;4.30;;
65162;SDS011;51751;55.714;37.436;2023-02-22T16:03:44;7.65;;;3.50;;
65162;SDS011;51751;55.714;37.436;2023-02-22T16:06:34;11.57;;;4.82;;
65162;SDS011;51751;55.714;37.436;2023-02-22T16:12:08;11.57;;;4.50;;
65162;SDS011;51751;55.714;37.436;2023-02-22T16:15:12;8.80;;;4.30;;
65162;SDS011;51751;55.714;37.436;2023-02-22T16:17:40;8.50;;;4.10;;
65162;SDS011;51751;55.714;37.436;2023-02-22T16:22:48;11.10;;;4.45;;
65162;SDS011;51751;55.714;37.436;2023-02-22T16:27:44;11.07;;;5.03;;
65162;SDS011;51751;55.714;37.436;2023-02-22T16:32:43;7.68;;;4.20;;
65162;SDS011;51751;55.714;37.436;2023-02-22T16:35:28;8.73;;;4.13;;
65162;SDS011;51751;55.714;37.436;2023-02-22T16:37:55;10.68;;;5.15;;
65162;SDS011;51751;55.714;37.436;2023-02-22T16:40:34;8.15;;;4.18;;
65162;SDS011;51751;55.714;37.436;2023-02-22T16:43:07;8.50;;;3.67;;
65162;SDS011;51751;55.714;37.436;2023-02-22T16:45:36;8.43;;;3.97;;
65162;SDS011;51751;55.714;37.436;2023-02-22T16:48:10;8.23;;;4.05;;
65162;SDS011;51751;55.714;37.436;2023-02-22T16:51:07;9.55;;;4.20;;
65162;SDS011;51751;55.714;37.436;2023-02-22T16:53:41;8.43;;;3.85;;
65162;SDS011;51751;55.714;37.436;2023-02-22T16:56:09;8.32;;;4.32;;
65162;SDS011;51751;55.714;37.436;2023-02-22T16:58:37;8.82;;;4.07;;
65162;SDS011;51751;55.714;37.436;2023-02-22T17:01:04;8.45;;;4.18;;
65162;SDS011;51751;55.714;37.436;2023-02-22T17:03:30;11.40;;;4.60;;
65162;SDS011;51751;55.714;37.436;2023-02-22T17:05:55;14.10;;;3.97;;
65162;SDS011;51751;55.714;37.436;2023-02-22T17:08:21;8.32;;;3.72;;
65162;SDS011;51751;55.714;37.436;2023-02-22T17:10:47;10.75;;;4.55;;
65162;SDS011;51751;55.714;37.436;2023-02-22T17:13:18;8.57;;;4.30;;
65162;SDS011;51751;55.714;37.436;2023-02-22T17:15:44;11.75;;;5.00;;
65162;SDS011;51751;55.714;37.436;2023-02-22T17:18:11;11.23;;;4.90;;
65162;SDS011;51751;55.714;37.436;2023-02-22T17:20:42;12.60;;;5.03;;
65162;SDS011;51751;55.714;37.436;2023-02-22T17:23:10;20.00;;;4.90;;
65162;SDS011;51751;55.714;37.436;2023-02-22T17:28:26;13.82;;;4.35;;
65162;SDS011;51751;55.714;37.436;2023-02-22T17:30:53;12.68;;;4.60;;
65162;SDS011;51751;55.714;37.436;2023-02-22T17:33:24;13.05;;;4.78;;
65162;SDS011;51751;55.714;37.436;2023-02-22T17:35:51;7.88;;;4.18;;
65162;SDS011;51751;55.714;37.436;2023-02-22T17:38:18;11.27;;;4.55;;
65162;SDS011;51751;55.714;37.436;2023-02-22T17:40:45;13.63;;;5.18;;
65162;SDS011;51751;55.714;37.436;2023-02-22T17:43:35;9.48;;;4.63;;
65162;SDS011;51751;55.714;37.436;2023-02-22T17:46:04;13.05;;;4.60;;
65162;SDS011;51751;55.714;37.436;2023-02-22T17:48:32;9.77;;;4.40;;
65162;SDS011;51751;55.714;37.436;2023-02-22T17:50:58;10.88;;;5.35;;